You are listening to:
SABE Gnd/Twr/App - Buenos Aires, Argentina

SABE 220900Z 09011KT 9999 SCT018 BKN023 25/21 Q1012 NOSIG

If stream does not start automatically press the play button